createdAt,value
2023-04-05T00:00:10.613Z,100552.22
2023-04-05T00:05:12.884Z,100551.44
2023-04-05T00:10:14.551Z,100547.91
2023-04-05T00:15:16.766Z,100545.31
2023-04-05T00:20:18.700Z,100540.69
2023-04-05T00:25:21.870Z,100541.63
2023-04-05T00:30:23.919Z,100541.63
2023-04-05T00:35:28.037Z,100538.22
2023-04-05T00:40:29.728Z,100529.66
2023-04-05T00:45:31.877Z,100527.19
2023-04-05T00:50:33.821Z,100525.84
2023-04-05T00:55:36.400Z,100533.84
2023-04-05T01:00:39.808Z,100524.50
2023-04-05T01:05:51.669Z,100529.66
2023-04-05T01:10:57.287Z,100524.13
2023-04-05T01:15:59.272Z,100518.53
2023-04-05T01:21:20.933Z,100523.56
2023-04-05T01:26:44.114Z,100519.19
2023-04-05T01:31:56.838Z,100511.94
2023-04-05T01:37:06.190Z,100509.91
2023-04-05T01:42:08.546Z,100511.41
2023-04-05T01:47:10.231Z,100516.34
2023-04-05T01:52:11.973Z,100502.75
2023-04-05T01:57:13.575Z,100509.88
2023-04-05T02:02:15.648Z,100524.00
2023-04-05T02:07:17.253Z,100511.41
2023-04-05T02:12:18.862Z,100520.22
2023-04-05T02:17:21.900Z,100509.28
2023-04-05T02:22:23.526Z,100509.19
2023-04-05T02:27:25.397Z,100502.97
2023-04-05T02:32:28.714Z,100503.63
2023-04-05T02:37:30.926Z,100510.59
2023-04-05T02:42:32.509Z,100506.72
2023-04-05T02:47:34.681Z,100502.47
2023-04-05T02:52:37.676Z,100505.59
2023-04-05T02:57:41.168Z,100498.41
2023-04-05T03:02:56.775Z,100500.97
2023-04-05T03:07:59.564Z,100495.63
2023-04-05T03:13:05.033Z,100499.06
2023-04-05T03:18:06.751Z,100502.94
2023-04-05T03:23:09.291Z,100498.09
2023-04-05T03:28:12.398Z,100498.31
2023-04-05T03:33:19.473Z,100498.63
2023-04-05T03:38:24.478Z,100498.63
2023-04-05T03:43:43.051Z,100500.56
2023-04-05T03:48:44.743Z,100512.16
2023-04-05T03:53:46.356Z,100509.59
2023-04-05T03:58:48.645Z,100505.63
2023-04-05T04:03:52.912Z,100518.59
2023-04-05T04:08:54.647Z,100510.13
2023-04-05T04:13:56.893Z,100502.19
2023-04-05T04:19:09.099Z,100514.31
2023-04-05T04:24:40.735Z,100511.41
2023-04-05T04:30:04.103Z,100504.88
2023-04-05T04:35:41.112Z,100507.78
2023-04-05T04:41:06.733Z,100512.66
2023-04-05T04:46:19.135Z,100509.59
2023-04-05T04:51:38.290Z,100517.06
2023-04-05T04:56:39.872Z,100518.78
2023-04-05T05:01:42.289Z,100527.91
2023-04-05T05:06:45.380Z,100516.41
2023-04-05T05:11:47.167Z,100525.94
2023-04-05T05:16:48.807Z,100531.97
2023-04-05T05:21:53.950Z,100528.16
2023-04-05T05:26:55.712Z,100534.09
2023-04-05T05:31:57.371Z,100534.22
2023-04-05T05:36:58.994Z,100531.28
2023-04-05T05:42:00.704Z,100539.13
2023-04-05T05:47:03.027Z,100537.78
2023-04-05T05:52:05.055Z,100536.63
2023-04-05T05:57:06.676Z,100523.06
2023-04-05T06:02:08.485Z,100538.91
2023-04-05T06:07:11.166Z,100530.75
2023-04-05T06:12:12.950Z,100542.63
2023-04-05T06:17:14.592Z,100525.50
2023-04-05T06:22:16.542Z,100534.78
2023-04-05T06:27:18.375Z,100541.22
2023-04-05T06:32:20.733Z,100523.84
2023-04-05T06:37:22.352Z,100546.94
2023-04-05T06:42:25.392Z,100540.72
2023-04-05T06:47:35.754Z,100547.50
2023-04-05T06:52:38.027Z,100522.81
2023-04-05T06:57:39.675Z,100542.22
2023-04-05T07:02:41.346Z,100534.00
2023-04-05T07:07:44.486Z,100535.00
2023-04-05T07:12:46.127Z,100528.13
2023-04-05T07:17:47.845Z,100559.84
2023-04-05T07:22:49.539Z,100559.97
2023-04-05T07:27:52.748Z,100542.06
2023-04-05T07:32:55.366Z,100540.97
2023-04-05T07:37:57.312Z,100545.41
2023-04-05T07:42:59.034Z,100537.84
2023-04-05T07:48:00.701Z,100532.41
2023-04-05T07:53:02.563Z,100519.75
2023-04-05T07:58:04.163Z,100529.78
2023-04-05T08:03:06.150Z,100499.06
2023-04-05T08:08:11.082Z,100491.81
2023-04-05T08:13:12.795Z,100490.78
2023-04-05T08:18:14.499Z,100501.03
2023-04-05T08:23:16.090Z,100489.28
2023-04-05T08:28:17.892Z,100489.75
2023-04-05T08:33:19.750Z,100493.41
2023-04-05T08:38:21.637Z,100484.19
2023-04-05T08:43:28.412Z,100463.50
2023-04-05T08:48:35.014Z,100475.81
2023-04-05T08:53:36.755Z,100467.06
2023-04-05T08:58:39.572Z,100462.84
2023-04-05T09:03:42.986Z,100462.72
2023-04-05T09:08:44.911Z,100439.63
2023-04-05T09:13:46.551Z,100450.91
2023-04-05T09:18:49.155Z,100442.25
2023-04-05T09:23:55.669Z,100441.31
2023-04-05T09:28:57.333Z,100432.34
2023-04-05T09:34:03.728Z,100420.06
2023-04-05T09:39:09.977Z,100401.81
2023-04-05T09:44:11.616Z,100409.63
2023-04-05T09:49:14.423Z,100381.16
2023-04-05T09:54:16.440Z,100386.78
2023-04-05T09:59:18.250Z,100391.50
2023-04-05T10:04:20.045Z,100359.47
2023-04-05T10:09:22.109Z,100348.75
2023-04-05T10:14:23.984Z,100367.47
2023-04-05T10:20:01.053Z,100344.63
2023-04-05T10:25:13.688Z,100354.50
2023-04-05T10:30:16.576Z,100339.25
2023-04-05T10:35:41.532Z,100321.69
2023-04-05T10:40:48.525Z,100324.63
2023-04-05T10:45:53.449Z,100341.34
2023-04-05T10:50:56.587Z,100310.91
2023-04-05T10:55:59.166Z,100336.06
2023-04-05T11:01:01.953Z,100335.59
2023-04-05T11:06:19.103Z,100318.84
2023-04-05T11:11:22.864Z,100321.53
2023-04-05T11:16:38.558Z,100325.16
2023-04-05T11:21:40.471Z,100298.66
2023-04-05T11:26:48.192Z,100296.38
2023-04-05T11:32:06.198Z,100285.06
2023-04-05T11:37:07.993Z,100288.63
2023-04-05T11:42:16.031Z,100268.84
2023-04-05T11:47:21.639Z,100278.84
2023-04-05T11:52:23.478Z,100257.66
2023-04-05T11:57:25.313Z,100272.69
2023-04-05T12:02:27.046Z,100253.16
2023-04-05T12:07:32.065Z,100271.69
2023-04-05T12:12:41.971Z,100278.19
2023-04-05T12:17:51.948Z,100258.03
2023-04-05T12:22:55.658Z,100242.75
2023-04-05T12:27:57.350Z,100247.25
2023-04-05T12:32:59.217Z,100236.19
2023-04-05T12:38:03.147Z,100246.88
2023-04-05T12:43:09.254Z,100233.34
2023-04-05T12:48:15.813Z,100233.63
2023-04-05T12:53:20.500Z,100191.09
2023-04-05T12:58:37.922Z,100222.69
2023-04-05T13:03:44.034Z,100215.50
2023-04-05T13:08:45.941Z,100205.19
2023-04-05T13:13:47.562Z,100202.81
2023-04-05T13:18:49.203Z,100210.22
2023-04-05T13:23:50.887Z,100234.34
2023-04-05T13:28:52.505Z,100224.75
2023-04-05T13:33:54.302Z,100223.19
2023-04-05T13:38:56.259Z,100224.28
2023-04-05T13:43:59.761Z,100211.16
2023-04-05T13:49:02.822Z,100187.63
2023-04-05T13:54:04.545Z,100191.56
2023-04-05T13:59:06.509Z,100196.19
2023-04-05T14:04:08.284Z,100220.69
2023-04-05T14:09:10.019Z,100189.16
2023-04-05T14:14:11.953Z,100184.09
2023-04-05T14:19:13.706Z,100211.59
2023-04-05T14:24:15.453Z,100187.53
2023-04-05T14:29:17.984Z,100200.69
2023-04-05T14:34:19.816Z,100177.63
2023-04-05T14:39:21.781Z,100195.53
2023-04-05T14:44:24.415Z,100215.81
2023-04-05T14:49:26.352Z,100218.78
2023-04-05T14:54:28.385Z,100196.63
2023-04-05T14:59:31.010Z,100205.13
2023-04-05T15:04:32.949Z,100207.25
2023-04-05T15:09:34.716Z,100174.47
2023-04-05T15:14:36.690Z,100199.69
2023-04-05T15:19:38.372Z,100202.06
2023-04-05T15:24:41.770Z,100208.50
2023-04-05T15:29:43.661Z,100209.97
2023-04-05T15:34:46.131Z,100190.50
2023-04-05T15:39:48.014Z,100208.16
2023-04-05T15:44:50.271Z,100209.75
2023-04-05T15:49:52.164Z,100215.41
2023-04-05T15:54:53.938Z,100219.06
2023-04-05T15:59:55.674Z,100217.41
2023-04-05T16:04:57.466Z,100217.59
2023-04-05T16:09:59.216Z,100222.13
2023-04-05T16:15:00.943Z,100229.00
2023-04-05T16:20:02.757Z,100219.81
2023-04-05T16:25:04.968Z,100219.53
2023-04-05T16:30:07.718Z,100225.78
2023-04-05T16:35:10.139Z,100242.94
2023-04-05T16:40:12.766Z,100229.84
2023-04-05T16:45:14.481Z,100230.38
2023-04-05T16:50:16.224Z,100236.75
2023-04-05T16:55:17.888Z,100240.34
2023-04-05T17:00:20.219Z,100245.19
2023-04-05T17:05:21.914Z,100255.53
2023-04-05T17:10:23.849Z,100250.63
2023-04-05T17:15:26.320Z,100258.47
2023-04-05T17:20:28.157Z,100257.84
2023-04-05T17:25:31.324Z,100256.56
2023-04-05T17:30:33.420Z,100260.66
2023-04-05T17:35:35.509Z,100274.66
2023-04-05T17:40:37.308Z,100269.44
2023-04-05T17:45:39.381Z,100275.94
2023-04-05T17:50:41.184Z,100283.25
2023-04-05T17:55:43.443Z,100282.44
2023-04-05T18:00:45.170Z,100284.84
2023-04-05T18:05:54.268Z,100299.94
2023-04-05T18:10:57.949Z,100309.94
2023-04-05T18:16:00.387Z,100302.53
2023-04-05T18:21:02.234Z,100305.09
2023-04-05T18:26:07.978Z,100312.31
2023-04-05T18:31:10.223Z,100316.91
2023-04-05T18:36:12.898Z,100328.09
2023-04-05T18:41:15.242Z,100326.94
2023-04-05T18:46:18.630Z,100330.25
2023-04-05T18:51:24.911Z,100336.50
2023-04-05T18:56:29.938Z,100325.19
2023-04-05T19:01:31.946Z,100335.56
2023-04-05T19:06:34.755Z,100332.16
2023-04-05T19:11:36.429Z,100334.63
2023-04-05T19:16:38.237Z,100337.19
2023-04-05T19:21:39.992Z,100341.19
2023-04-05T19:26:43.031Z,100344.13
2023-04-05T19:31:44.955Z,100345.84
2023-04-05T19:36:46.692Z,100356.09
2023-04-05T19:41:48.402Z,100355.91
2023-04-05T19:46:50.344Z,100346.75
2023-04-05T19:51:56.140Z,100342.53
2023-04-05T19:57:01.190Z,100343.03
2023-04-05T20:02:19.072Z,100348.72
2023-04-05T20:07:21.166Z,100352.22
2023-04-05T20:12:23.408Z,100347.66
2023-04-05T20:22:32.699Z,100339.28
2023-04-05T20:27:34.377Z,100339.72
2023-04-05T20:32:36.118Z,100340.06
2023-04-05T20:37:37.815Z,100332.44
2023-04-05T20:42:39.676Z,100333.22
2023-04-05T20:47:41.602Z,100339.03
2023-04-05T20:52:43.344Z,100333.94
2023-04-05T20:57:45.003Z,100339.06
2023-04-05T21:02:47.201Z,100337.06
2023-04-05T21:07:49.209Z,100333.00
2023-04-05T21:12:52.277Z,100336.72
2023-04-05T21:17:56.037Z,100334.72
2023-04-05T21:22:59.223Z,100339.47
2023-04-05T21:28:01.351Z,100341.53
2023-04-05T21:33:03.052Z,100346.53
2023-04-05T21:38:05.521Z,100337.16
2023-04-05T21:43:07.303Z,100346.28
2023-04-05T21:48:09.047Z,100343.41
2023-04-05T21:53:10.923Z,100350.56
2023-04-05T21:58:12.913Z,100343.56
2023-04-05T22:03:14.659Z,100353.06
2023-04-05T22:08:17.150Z,100345.47
2023-04-05T22:13:18.987Z,100348.63
2023-04-05T22:18:20.659Z,100351.50
2023-04-05T22:23:22.379Z,100352.56
2023-04-05T22:28:24.163Z,100350.84
2023-04-05T22:33:25.955Z,100342.84
2023-04-05T22:38:29.333Z,100345.94
2023-04-05T22:43:31.168Z,100344.94
2023-04-05T22:48:32.961Z,100341.03
2023-04-05T22:53:34.626Z,100341.13
2023-04-05T22:58:36.736Z,100347.28
2023-04-05T23:03:38.481Z,100350.63
2023-04-05T23:08:40.266Z,100344.56
2023-04-05T23:13:41.944Z,100341.94
2023-04-05T23:18:43.742Z,100345.34
2023-04-05T23:23:45.404Z,100348.56
2023-04-05T23:28:47.099Z,100347.38
2023-04-05T23:33:48.962Z,100343.28
2023-04-05T23:38:51.059Z,100338.00
2023-04-05T23:43:53.036Z,100336.81
2023-04-05T23:48:54.713Z,100337.88
2023-04-05T23:53:56.429Z,100330.31
2023-04-05T23:58:58.176Z,100331.38
